createdAt,value
2019-01-02T00:09:49.675Z,3.28
2019-01-02T00:15:14.882Z,3.30
2019-01-02T00:20:38.188Z,3.33
2019-01-02T00:26:14.265Z,3.28
2019-01-02T00:47:32.514Z,3.07
2019-01-02T00:57:47.118Z,3.08
2019-01-02T01:02:51.932Z,3.00
2019-01-02T01:07:57.625Z,2.94
2019-01-02T01:13:02.193Z,2.90
2019-01-02T01:18:06.805Z,2.89
2019-01-02T01:29:00.846Z,2.78
2019-01-02T01:34:06.825Z,2.77
2019-01-02T01:39:50.584Z,2.73
2019-01-02T01:45:15.651Z,2.68
2019-01-02T01:55:49.137Z,2.57
2019-01-02T02:06:04.198Z,2.53
2019-01-02T02:11:10.186Z,2.52
2019-01-02T02:16:33.481Z,2.46
2019-01-02T02:21:56.789Z,2.45
2019-01-02T02:27:01.141Z,2.47
2019-01-02T02:32:05.393Z,2.44
2019-01-02T02:37:09.832Z,2.34
2019-01-02T02:47:43.262Z,2.28
2019-01-02T02:52:49.611Z,2.36
2019-01-02T02:57:53.909Z,2.32
2019-01-02T03:03:17.271Z,2.40
2019-01-02T03:08:22.898Z,2.46
2019-01-02T03:13:29.289Z,2.51
2019-01-02T03:18:54.304Z,2.47
2019-01-02T03:24:00.285Z,2.43
2019-01-02T03:34:14.117Z,2.41
2019-01-02T03:39:18.446Z,2.42
2019-01-02T03:49:32.569Z,2.46
2019-01-02T03:59:47.389Z,2.44
2019-01-02T04:10:01.689Z,2.48
2019-01-02T04:15:45.405Z,2.51
2019-01-02T04:21:08.750Z,2.47
2019-01-02T04:26:13.024Z,2.43
2019-01-02T04:31:17.577Z,2.38
2019-01-02T04:47:01.268Z,2.37
2019-01-02T04:52:05.858Z,2.32
2019-01-02T04:57:22.171Z,2.30
2019-01-02T05:02:26.403Z,2.32
2019-01-02T05:07:30.742Z,2.36
2019-01-02T05:12:34.967Z,2.38
2019-01-02T05:23:07.966Z,2.36
2019-01-02T05:28:31.252Z,2.38
2019-01-02T05:33:35.567Z,2.42
2019-01-02T05:38:39.801Z,2.43
2019-01-02T05:44:03.102Z,2.47
2019-01-02T05:54:17.136Z,2.43
2019-01-02T06:04:50.471Z,2.35
2019-01-02T06:09:54.711Z,2.38
2019-01-02T06:20:28.277Z,2.40
2019-01-02T06:25:32.501Z,2.42
2019-01-02T06:30:36.769Z,2.48
2019-01-02T06:35:41.001Z,2.48
2019-01-02T06:40:45.229Z,2.47
2019-01-02T06:45:49.615Z,2.55
2019-01-02T06:50:54.089Z,2.48
2019-01-02T06:56:17.306Z,2.44
2019-01-02T07:01:33.584Z,2.43
2019-01-02T07:17:15.895Z,2.33
2019-01-02T07:27:30.228Z,2.31
2019-01-02T07:32:34.606Z,2.31
2019-01-02T07:38:17.050Z,2.20
2019-01-02T07:43:59.718Z,2.20
2019-01-02T07:49:42.020Z,2.19
2019-01-02T07:55:24.382Z,2.18
2019-01-02T08:00:50.834Z,2.16
2019-01-02T08:06:33.157Z,2.17
2019-01-02T08:12:15.434Z,2.25
2019-01-02T08:17:57.723Z,2.31
2019-01-02T08:29:34.361Z,2.39
2019-01-02T08:35:16.642Z,2.46
2019-01-02T08:40:58.927Z,2.55
2019-01-02T08:46:41.206Z,2.70
2019-01-02T08:52:09.331Z,2.90
2019-01-02T08:57:51.631Z,2.89
2019-01-02T09:03:20.742Z,2.87
2019-01-02T09:08:36.991Z,2.91
2019-01-02T09:14:19.311Z,2.85
2019-01-02T09:20:01.635Z,2.81
2019-01-02T09:25:43.963Z,2.86
2019-01-02T09:31:26.279Z,2.93
2019-01-02T09:37:08.835Z,3.06
2019-01-02T09:42:51.126Z,3.08
2019-01-02T09:48:18.994Z,3.09
2019-01-02T09:54:01.329Z,3.10
2019-01-02T10:05:38.674Z,3.08
2019-01-02T10:11:21.052Z,3.12
2019-01-02T10:17:03.594Z,3.16
2019-01-02T10:22:45.904Z,3.17
2019-01-02T10:28:28.193Z,3.16
2019-01-02T10:34:10.555Z,3.26
2019-01-02T10:39:52.935Z,3.31
2019-01-02T10:45:35.299Z,3.40
2019-01-02T10:51:17.844Z,3.27
2019-01-02T10:57:00.140Z,3.11
2019-01-02T11:02:42.427Z,3.06
2019-01-02T11:08:24.754Z,3.09
2019-01-02T11:14:07.225Z,3.16
2019-01-02T11:25:38.354Z,3.09
2019-01-02T11:31:20.694Z,3.04
2019-01-02T11:37:03.378Z,4.32
2019-01-02T11:48:03.539Z,4.99
2019-01-02T11:58:17.669Z,4.83
2019-01-02T12:03:21.962Z,5.16
2019-01-02T12:08:45.108Z,5.80
2019-01-02T12:19:37.263Z,5.76
2019-01-02T12:36:00.820Z,5.92
2019-01-02T12:41:05.177Z,5.56
2019-01-02T12:46:28.490Z,5.70
2019-01-02T12:51:52.146Z,5.44
2019-01-02T12:57:15.421Z,5.07
2019-01-02T13:02:57.706Z,4.97
2019-01-02T13:08:40.049Z,4.94
2019-01-02T13:14:22.632Z,5.11
2019-01-02T13:19:38.254Z,5.14
2019-01-02T13:25:20.587Z,5.17
2019-01-02T13:31:02.970Z,5.34
2019-01-02T13:36:45.257Z,5.08
2019-01-02T13:42:29.139Z,5.01
2019-01-02T13:48:13.150Z,5.05
2019-01-02T13:53:36.486Z,4.80
2019-01-02T13:58:40.777Z,4.65
2019-01-02T14:09:35.389Z,4.37
2019-01-02T14:14:58.700Z,4.18
2019-01-02T14:20:15.340Z,4.12
2019-01-02T14:25:19.653Z,4.08
2019-01-02T14:30:23.916Z,3.87
2019-01-02T14:35:28.431Z,3.79
2019-01-02T14:40:32.740Z,3.78
2019-01-02T14:45:56.146Z,3.68
2019-01-02T14:56:29.466Z,3.55
2019-01-02T15:28:01.244Z,3.11
2019-01-02T15:33:05.525Z,2.97
2019-01-02T15:38:28.844Z,2.98
2019-01-02T15:43:52.145Z,2.90
2019-01-02T15:48:56.888Z,2.78
2019-01-02T15:54:20.112Z,2.78
2019-01-02T15:59:43.414Z,2.65
2019-01-02T16:10:16.445Z,2.49
2019-01-02T16:21:09.473Z,2.40
2019-01-02T16:36:34.065Z,2.36
2019-01-02T16:52:37.441Z,2.19
2019-01-02T16:57:42.060Z,2.17
2019-01-02T17:02:46.294Z,2.10
2019-01-02T17:07:50.852Z,1.99
2019-01-02T17:12:55.119Z,1.91
2019-01-02T17:23:08.813Z,1.85
2019-01-02T17:28:13.076Z,1.79
2019-01-02T17:33:17.315Z,1.79
2019-01-02T17:38:21.544Z,1.77
2019-01-02T17:43:44.775Z,1.73
2019-01-02T17:48:49.010Z,1.61
2019-01-02T17:59:22.231Z,1.62
2019-01-02T18:04:26.480Z,1.53
2019-01-02T18:09:49.779Z,1.48
2019-01-02T18:15:13.163Z,1.38
2019-01-02T18:25:46.159Z,1.02
2019-01-02T18:41:29.910Z,0.63
2019-01-02T18:46:53.530Z,0.52
2019-01-02T18:51:57.784Z,0.57
2019-01-02T19:02:11.326Z,0.55
2019-01-02T19:07:15.567Z,0.51
2019-01-02T19:12:38.874Z,0.54
2019-01-02T19:17:43.122Z,0.49
2019-01-02T19:28:16.439Z,0.35
2019-01-02T19:33:39.705Z,0.33
2019-01-02T19:44:33.354Z,0.39
2019-01-02T19:49:37.624Z,0.44
2019-01-02T19:55:00.938Z,0.47
2019-01-02T20:00:45.021Z,0.49
2019-01-02T20:05:49.294Z,0.49
2019-01-02T20:37:59.178Z,0.38
2019-01-02T20:48:32.928Z,0.19
2019-01-02T21:04:54.021Z,-0.20
2019-01-02T21:10:17.336Z,-0.38
2019-01-02T21:15:21.577Z,-0.60
2019-01-02T21:25:54.909Z,-0.54
2019-01-02T21:31:18.183Z,-0.55
2019-01-02T21:36:22.439Z,-0.73
2019-01-02T21:41:41.029Z,-0.78
2019-01-02T21:46:45.295Z,-1.09
2019-01-02T21:51:49.591Z,-0.99
2019-01-02T21:56:54.172Z,-1.02
2019-01-02T22:01:58.415Z,-1.11
2019-01-02T22:07:21.728Z,-1.26
2019-01-02T22:12:45.201Z,-1.32
2019-01-02T22:17:49.543Z,-1.53
2019-01-02T22:23:13.198Z,-1.57
2019-01-02T22:28:17.822Z,-1.36
2019-01-02T22:33:22.148Z,-1.41
2019-01-02T22:38:45.464Z,-1.52
2019-01-02T22:43:49.775Z,-1.53
2019-01-02T22:59:51.753Z,-1.63
2019-01-02T23:05:15.213Z,-1.66
2019-01-02T23:10:38.760Z,-1.78
2019-01-02T23:16:20.995Z,-1.75
2019-01-02T23:22:03.752Z,-1.79
2019-01-02T23:27:27.169Z,-1.89
2019-01-02T23:33:09.432Z,-1.83
2019-01-02T23:38:32.598Z,-1.72
2019-01-02T23:44:15.175Z,-1.72
2019-01-02T23:49:50.217Z,-1.67
2019-01-02T23:55:33.879Z,-1.84
